createdAt,value
2023-04-29T00:01:15.975Z,96681.00
2023-04-29T00:03:43.000Z,96678.00
2023-04-29T00:06:11.544Z,96677.00
2023-04-29T00:08:38.508Z,96681.00
2023-04-29T00:11:05.384Z,96677.00
2023-04-29T00:13:32.269Z,96680.00
2023-04-29T00:15:59.140Z,96685.00
2023-04-29T00:18:25.974Z,96676.00
2023-04-29T00:20:52.738Z,96678.00
2023-04-29T00:23:19.908Z,96682.00
2023-04-29T00:25:46.650Z,96681.00
2023-04-29T00:28:13.569Z,96675.00
2023-04-29T00:30:40.573Z,96667.00
2023-04-29T00:33:07.495Z,96676.00
2023-04-29T00:35:34.641Z,96670.00
2023-04-29T00:38:01.417Z,96669.00
2023-04-29T00:40:29.140Z,96661.00
2023-04-29T00:42:56.076Z,96651.00
2023-04-29T00:45:23.771Z,96656.00
2023-04-29T00:47:50.556Z,96654.00
2023-04-29T00:50:17.454Z,96658.00
2023-04-29T00:52:44.994Z,96659.00
2023-04-29T00:55:15.850Z,96657.00
2023-04-29T00:57:42.800Z,96654.00
2023-04-29T01:00:10.293Z,96658.00
2023-04-29T01:02:37.617Z,96659.00
2023-04-29T01:05:04.883Z,96660.00
2023-04-29T01:08:04.226Z,96664.00
2023-04-29T01:10:40.671Z,96659.00
2023-04-29T01:13:17.817Z,96665.00
2023-04-29T01:15:56.405Z,96661.00
2023-04-29T01:18:29.741Z,96661.00
2023-04-29T01:20:58.267Z,96662.00
2023-04-29T01:23:29.430Z,96668.00
2023-04-29T01:25:57.167Z,96658.00
2023-04-29T01:28:39.083Z,96660.00
2023-04-29T01:31:23.345Z,96664.00
2023-04-29T01:34:16.324Z,96662.00
2023-04-29T01:37:18.791Z,96652.00
2023-04-29T01:40:10.515Z,96654.00
2023-04-29T01:42:46.115Z,96645.00
2023-04-29T01:45:21.477Z,96642.00
2023-04-29T01:47:51.190Z,96648.00
2023-04-29T01:50:17.972Z,96641.00
2023-04-29T01:52:44.977Z,96637.00
2023-04-29T01:55:11.815Z,96636.00
2023-04-29T01:57:38.589Z,96631.00
2023-04-29T02:00:06.331Z,96637.00
2023-04-29T02:02:33.172Z,96644.00
2023-04-29T02:05:00.340Z,96642.00
2023-04-29T02:07:27.569Z,96641.00
2023-04-29T02:09:54.517Z,96630.00
2023-04-29T02:12:21.484Z,96644.00
2023-04-29T02:14:48.229Z,96642.00
2023-04-29T02:17:14.999Z,96639.00
2023-04-29T02:19:41.835Z,96642.00
2023-04-29T02:22:09.200Z,96648.00
2023-04-29T02:24:36.600Z,96649.00
2023-04-29T02:27:05.785Z,96643.00
2023-04-29T02:29:33.320Z,96653.00
2023-04-29T02:32:00.125Z,96647.00
2023-04-29T02:34:26.985Z,96645.00
2023-04-29T02:36:53.826Z,96643.00
2023-04-29T02:39:20.709Z,96633.00
2023-04-29T02:41:47.572Z,96645.00
2023-04-29T02:44:14.397Z,96645.00
2023-04-29T02:46:45.250Z,96642.00
2023-04-29T02:49:13.996Z,96647.00
2023-04-29T02:51:41.377Z,96635.00
2023-04-29T02:54:08.397Z,96641.00
2023-04-29T02:56:35.221Z,96633.00
2023-04-29T02:59:01.967Z,96641.00
2023-04-29T03:01:29.125Z,96629.00
2023-04-29T03:03:56.431Z,96641.00
2023-04-29T03:06:23.391Z,96628.00
2023-04-29T03:08:50.500Z,96637.00
2023-04-29T03:11:17.284Z,96633.00
2023-04-29T03:13:44.068Z,96629.00
2023-04-29T03:16:10.913Z,96634.00
2023-04-29T03:18:37.749Z,96628.00
2023-04-29T03:21:04.749Z,96632.00
2023-04-29T03:23:31.538Z,96627.00
2023-04-29T03:25:58.652Z,96633.00
2023-04-29T03:28:25.466Z,96635.00
2023-04-29T03:30:52.274Z,96631.00
2023-04-29T03:33:19.460Z,96634.00
2023-04-29T03:35:46.212Z,96629.00
2023-04-29T03:38:12.983Z,96632.00
2023-04-29T03:40:40.342Z,96625.00
2023-04-29T03:43:09.293Z,96632.00
2023-04-29T03:45:36.061Z,96635.00
2023-04-29T03:48:03.615Z,96635.00
2023-04-29T03:50:30.485Z,96628.00
2023-04-29T03:52:57.800Z,96625.00
2023-04-29T03:55:24.656Z,96628.00
2023-04-29T03:57:51.474Z,96635.00
2023-04-29T04:00:18.438Z,96632.00
2023-04-29T04:02:46.156Z,96635.00
2023-04-29T04:05:13.184Z,96641.00
2023-04-29T04:07:40.255Z,96644.00
2023-04-29T04:10:07.540Z,96651.00
2023-04-29T04:12:34.317Z,96642.00
2023-04-29T04:15:01.147Z,96638.00
2023-04-29T04:17:27.917Z,96645.00
2023-04-29T04:19:54.878Z,96641.00
2023-04-29T04:22:21.857Z,96650.00
2023-04-29T04:24:48.817Z,96657.00
2023-04-29T04:27:15.685Z,96652.00
2023-04-29T04:29:42.697Z,96647.00
2023-04-29T04:32:09.578Z,96653.00
2023-04-29T04:34:39.251Z,96658.00
2023-04-29T04:37:06.693Z,96659.00
2023-04-29T04:39:33.469Z,96660.00
2023-04-29T04:42:00.332Z,96664.00
2023-04-29T04:44:27.150Z,96670.00
2023-04-29T04:46:53.970Z,96668.00
2023-04-29T04:49:20.820Z,96671.00
2023-04-29T04:51:47.557Z,96661.00
2023-04-29T04:54:14.365Z,96663.00
2023-04-29T04:56:41.195Z,96659.00
2023-04-29T04:59:08.387Z,96659.00
2023-04-29T05:01:35.421Z,96668.00
2023-04-29T05:04:03.215Z,96662.00
2023-04-29T05:06:30.201Z,96674.00
2023-04-29T05:08:57.000Z,96670.00
2023-04-29T05:11:23.836Z,96667.00
2023-04-29T05:13:50.731Z,96668.00
2023-04-29T05:16:18.129Z,96667.00
2023-04-29T05:18:45.711Z,96670.00
2023-04-29T05:21:13.848Z,96673.00
2023-04-29T05:23:41.858Z,96669.00
2023-04-29T05:26:09.566Z,96670.00
2023-04-29T05:28:36.399Z,96676.00
2023-04-29T05:31:03.465Z,96679.00
2023-04-29T05:33:30.366Z,96679.00
2023-04-29T05:35:57.196Z,96692.00
2023-04-29T05:38:28.896Z,96687.00
2023-04-29T05:40:56.544Z,96694.00
2023-04-29T05:43:23.724Z,96680.00
2023-04-29T05:45:50.535Z,96685.00
2023-04-29T05:48:17.534Z,96696.00
2023-04-29T05:50:45.761Z,96691.00
2023-04-29T05:53:12.718Z,96698.00
2023-04-29T05:55:40.610Z,96699.00
2023-04-29T05:58:07.422Z,96701.00
2023-04-29T06:00:34.232Z,96706.00
2023-04-29T06:03:01.331Z,96711.00
2023-04-29T06:05:28.805Z,96708.00
2023-04-29T06:07:55.980Z,96707.00
2023-04-29T06:10:22.757Z,96717.00
2023-04-29T06:12:51.538Z,96715.00
2023-04-29T06:15:18.488Z,96719.00
2023-04-29T06:17:45.372Z,96719.00
2023-04-29T06:20:12.925Z,96725.00
2023-04-29T06:22:39.680Z,96726.00
2023-04-29T06:25:07.145Z,96726.00
2023-04-29T06:27:33.954Z,96729.00
2023-04-29T06:30:00.777Z,96732.00
2023-04-29T06:32:27.597Z,96731.00
2023-04-29T06:34:54.523Z,96743.00
2023-04-29T06:37:21.348Z,96736.00
2023-04-29T06:39:48.269Z,96744.00
2023-04-29T06:42:15.165Z,96740.00
2023-04-29T06:44:41.991Z,96727.00
2023-04-29T06:47:08.850Z,96727.00
2023-04-29T06:49:35.650Z,96740.00
2023-04-29T06:52:02.758Z,96731.00
2023-04-29T06:54:29.634Z,96739.00
2023-04-29T06:56:58.083Z,96739.00
2023-04-29T06:59:24.877Z,96743.00
2023-04-29T07:01:52.327Z,96742.00
2023-04-29T07:04:19.236Z,96745.00
2023-04-29T07:06:47.001Z,96749.00
2023-04-29T07:09:14.733Z,96736.00
2023-04-29T07:11:41.996Z,96743.00
2023-04-29T07:14:09.000Z,96734.00
2023-04-29T07:16:35.859Z,96748.00
2023-04-29T07:19:02.776Z,96735.00
2023-04-29T07:21:31.235Z,96736.00
2023-04-29T07:24:00.727Z,96741.00
2023-04-29T08:18:31.033Z,96784.00
2023-04-29T08:20:57.827Z,96780.00
2023-04-29T08:23:24.632Z,96776.00
2023-04-29T08:25:52.273Z,96784.00
2023-04-29T08:28:19.688Z,96791.00
2023-04-29T08:30:46.684Z,96782.00
2023-04-29T08:33:15.260Z,96792.00
2023-04-29T08:35:42.898Z,96789.00
2023-04-29T08:38:10.214Z,96795.00
2023-04-29T08:40:45.829Z,96790.00
2023-04-29T08:43:15.608Z,96786.00
2023-04-29T08:45:43.828Z,96804.00
2023-04-29T08:48:10.966Z,96809.00
2023-04-29T08:50:40.796Z,96810.00
2023-04-29T08:53:09.799Z,96808.00
2023-04-29T08:55:42.648Z,96804.00
2023-04-29T08:58:11.282Z,96805.00
2023-04-29T09:00:39.660Z,96812.00
2023-04-29T09:03:32.557Z,96817.00
2023-04-29T09:06:02.079Z,96817.00
2023-04-29T09:08:30.097Z,96814.00
2023-04-29T09:10:58.038Z,96809.00
2023-04-29T09:13:31.031Z,96802.00
2023-04-29T09:15:58.267Z,96811.00
2023-04-29T09:18:51.768Z,96811.00
2023-04-29T09:21:22.202Z,96807.00
2023-04-29T09:23:55.690Z,96808.00
2023-04-29T09:26:24.154Z,96812.00
2023-04-29T09:29:13.926Z,96818.00
2023-04-29T09:31:42.063Z,96810.00
2023-04-29T09:34:09.932Z,96818.00
2023-04-29T09:36:47.827Z,96813.00
2023-04-29T09:39:23.564Z,96819.00
2023-04-29T09:41:53.377Z,96825.00
2023-04-29T09:44:29.942Z,96823.00
2023-04-29T09:47:04.956Z,96824.00
2023-04-29T09:49:35.849Z,96829.00
2023-04-29T09:52:06.067Z,96827.00
2023-04-29T09:54:36.712Z,96830.00
2023-04-29T09:57:09.125Z,96837.00
2023-04-29T09:59:40.627Z,96841.00
2023-04-29T10:02:20.579Z,96839.00
2023-04-29T10:04:57.322Z,96843.00
2023-04-29T10:07:26.969Z,96835.00
2023-04-29T10:09:55.105Z,96841.00
2023-04-29T10:12:22.274Z,96845.00
2023-04-29T10:15:04.158Z,96848.00
2023-04-29T10:17:46.475Z,96850.00
2023-04-29T10:20:24.634Z,96844.00
2023-04-29T10:22:56.480Z,96840.00
2023-04-29T10:25:24.967Z,96837.00
2023-04-29T10:27:54.863Z,96836.00
2023-04-29T10:30:23.307Z,96838.00
2023-04-29T10:32:52.819Z,96834.00
2023-04-29T10:35:23.623Z,96835.00
2023-04-29T10:37:53.160Z,96834.00
2023-04-29T10:40:31.123Z,96836.00
2023-04-29T10:42:59.685Z,96833.00
2023-04-29T10:45:35.678Z,96833.00
2023-04-29T10:48:24.507Z,96829.00
2023-04-29T10:50:51.638Z,96821.00
2023-04-29T10:53:21.225Z,96804.00
2023-04-29T10:55:56.221Z,96824.00
2023-04-29T10:58:46.996Z,96813.00
2023-04-29T11:01:18.016Z,96813.00
2023-04-29T11:03:55.380Z,96818.00
2023-04-29T11:06:48.868Z,96816.00
2023-04-29T11:09:29.678Z,96819.00
2023-04-29T11:12:03.633Z,96820.00
2023-04-29T11:14:38.938Z,96821.00
2023-04-29T11:17:16.576Z,96828.00
2023-04-29T11:19:50.474Z,96814.00
2023-04-29T11:22:22.955Z,96818.00
2023-04-29T11:25:11.674Z,96818.00
2023-04-29T11:27:40.472Z,96812.00
2023-04-29T11:30:08.827Z,96812.00
2023-04-29T11:32:40.555Z,96820.00
2023-04-29T11:35:14.586Z,96814.00
2023-04-29T11:37:43.947Z,96811.00
2023-04-29T11:40:12.232Z,96822.00
2023-04-29T11:42:48.297Z,96817.00
2023-04-29T11:45:19.041Z,96810.00
2023-04-29T11:47:48.229Z,96810.00
2023-04-29T11:50:19.553Z,96806.00
2023-04-29T11:52:47.777Z,96818.00
2023-04-29T11:55:14.867Z,96810.00
2023-04-29T11:57:42.034Z,96812.00
2023-04-29T12:00:14.210Z,96813.00
2023-04-29T12:02:46.286Z,96822.00
2023-04-29T12:05:15.848Z,96813.00
2023-04-29T12:07:43.540Z,96817.00
2023-04-29T12:10:12.150Z,96829.00
2023-04-29T12:12:42.369Z,96827.00
2023-04-29T12:15:10.777Z,96830.00
2023-04-29T12:17:38.643Z,96835.00
2023-04-29T12:20:09.145Z,96847.00
2023-04-29T12:22:36.649Z,96841.00
2023-04-29T12:25:04.634Z,96847.00
2023-04-29T12:27:32.899Z,96842.00
2023-04-29T12:29:59.728Z,96844.00
2023-04-29T12:32:26.689Z,96838.00
2023-04-29T12:34:53.812Z,96837.00
2023-04-29T12:37:23.577Z,96838.00
2023-04-29T12:39:51.325Z,96832.00
2023-04-29T12:42:18.853Z,96843.00
2023-04-29T12:44:50.214Z,96845.00
2023-04-29T12:47:17.931Z,96834.00
2023-04-29T12:49:46.712Z,96834.00
2023-04-29T12:52:14.267Z,96835.00
2023-04-29T12:54:43.395Z,96836.00
2023-04-29T12:57:11.886Z,96835.00
2023-04-29T12:59:39.774Z,96831.00
2023-04-29T13:02:06.737Z,96826.00
2023-04-29T13:04:33.964Z,96821.00
2023-04-29T13:07:02.532Z,96819.00
2023-04-29T13:09:30.581Z,96816.00
2023-04-29T13:11:57.821Z,96824.00
2023-04-29T13:14:25.097Z,96821.00
2023-04-29T13:16:52.202Z,96819.00
2023-04-29T13:19:36.307Z,96819.00
2023-04-29T13:22:06.672Z,96813.00
2023-04-29T13:24:36.010Z,96823.00
2023-04-29T13:27:05.917Z,96828.00
2023-04-29T13:29:33.223Z,96824.00
2023-04-29T13:32:00.607Z,96817.00
2023-04-29T13:34:27.480Z,96821.00
2023-04-29T13:36:54.364Z,96825.00
2023-04-29T13:39:23.278Z,96828.00
2023-04-29T13:41:50.225Z,96826.00
2023-04-29T13:46:47.738Z,96839.00
2023-04-29T13:57:36.922Z,96844.00
2023-04-29T13:59:44.765Z,96839.00
2023-04-29T14:04:48.097Z,96853.00
2023-04-29T14:07:15.452Z,96852.00
2023-04-29T14:09:42.656Z,96858.00
2023-04-29T14:12:09.784Z,96859.00
2023-04-29T14:14:36.829Z,96856.00
2023-04-29T14:17:03.871Z,96850.00
2023-04-29T14:19:31.923Z,96860.00
2023-04-29T14:21:59.387Z,96857.00
2023-04-29T14:24:26.408Z,96857.00
2023-04-29T14:26:53.478Z,96869.00
2023-04-29T14:29:21.727Z,96867.00
2023-04-29T14:31:48.912Z,96863.00
2023-04-29T14:34:15.921Z,96874.00
2023-04-29T14:36:44.341Z,96875.00
2023-04-29T14:39:13.480Z,96883.00
2023-04-29T14:41:40.602Z,96879.00
2023-04-29T14:44:07.642Z,96875.00
2023-04-29T14:46:34.752Z,96879.00
2023-04-29T14:49:01.861Z,96877.00
2023-04-29T14:51:29.582Z,96888.00
2023-04-29T14:53:57.053Z,96890.00
2023-04-29T14:56:24.730Z,96890.00
2023-04-29T14:58:52.477Z,96897.00
2023-04-29T15:01:19.457Z,96882.00
2023-04-29T15:03:46.779Z,96888.00
2023-04-29T15:06:14.616Z,96903.00
2023-04-29T15:08:42.227Z,96899.00
2023-04-29T15:11:09.401Z,96905.00
2023-04-29T15:13:36.598Z,96892.00
2023-04-29T15:16:04.425Z,96906.00
2023-04-29T15:18:31.631Z,96908.00
2023-04-29T15:20:59.128Z,96907.00
2023-04-29T15:23:26.133Z,96910.00
2023-04-29T15:25:54.257Z,96922.00
2023-04-29T15:28:23.086Z,96915.00
2023-04-29T15:30:50.778Z,96924.00
2023-04-29T15:33:18.276Z,96925.00
2023-04-29T15:35:45.338Z,96919.00
2023-04-29T15:38:13.231Z,96930.00
2023-04-29T15:40:40.226Z,96928.00
2023-04-29T15:43:07.399Z,96940.00
2023-04-29T15:45:34.262Z,96944.00
2023-04-29T15:48:01.185Z,96945.00
2023-04-29T15:50:28.410Z,96943.00
2023-04-29T15:52:56.580Z,96948.00
2023-04-29T15:55:23.597Z,96957.00
2023-04-29T15:57:51.492Z,96951.00
2023-04-29T16:00:19.114Z,96958.00
2023-04-29T16:02:46.032Z,96951.00
2023-04-29T16:05:13.975Z,96967.00
2023-04-29T16:07:41.145Z,96964.00
2023-04-29T16:10:08.269Z,96966.00
2023-04-29T16:12:35.085Z,96962.00
2023-04-29T16:15:01.908Z,96968.00
2023-04-29T16:17:29.593Z,96968.00
2023-04-29T16:19:56.839Z,96977.00
2023-04-29T16:22:24.151Z,96965.00
2023-04-29T16:24:51.036Z,96974.00
2023-04-29T16:27:18.607Z,96978.00
2023-04-29T16:29:45.600Z,96976.00
2023-04-29T16:32:12.686Z,96977.00
2023-04-29T16:34:39.862Z,96983.00
2023-04-29T16:37:12.282Z,96987.00
2023-04-29T16:39:40.788Z,96985.00
2023-04-29T16:42:08.052Z,96997.00
2023-04-29T16:44:34.944Z,96996.00
2023-04-29T16:47:03.001Z,96996.00
2023-04-29T16:49:31.426Z,96997.00
2023-04-29T16:51:58.801Z,96998.00
2023-04-29T16:54:27.727Z,97013.00
2023-04-29T16:56:54.816Z,97015.00
2023-04-29T16:59:21.792Z,97017.00
2023-04-29T17:01:48.833Z,97011.00
2023-04-29T17:04:15.807Z,97015.00
2023-04-29T17:06:43.462Z,97024.00
2023-04-29T17:09:10.486Z,97025.00
2023-04-29T17:11:37.467Z,97025.00
2023-04-29T17:14:04.425Z,97046.00
2023-04-29T17:16:31.378Z,97037.00
2023-04-29T17:18:59.052Z,97035.00
2023-04-29T17:21:26.147Z,97041.00
2023-04-29T17:23:53.342Z,97037.00
2023-04-29T17:26:21.278Z,97044.00
2023-04-29T17:28:48.354Z,97045.00
2023-04-29T17:31:15.551Z,97051.00
2023-04-29T17:33:54.630Z,97065.00
2023-04-29T17:36:25.044Z,97066.00
2023-04-29T17:38:52.232Z,97063.00
2023-04-29T17:41:19.019Z,97065.00
2023-04-29T17:43:47.192Z,97060.00
2023-04-29T17:46:14.143Z,97060.00
2023-04-29T17:48:41.107Z,97062.00
2023-04-29T17:51:08.017Z,97053.00
2023-04-29T17:57:41.873Z,97080.00
2023-04-29T18:00:09.651Z,97087.00
2023-04-29T18:02:37.302Z,97084.00
2023-04-29T18:05:04.678Z,97081.00
2023-04-29T18:07:31.489Z,97084.00
2023-04-29T18:09:58.659Z,97099.00
2023-04-29T18:12:25.728Z,97096.00
2023-04-29T18:14:52.544Z,97100.00
2023-04-29T18:17:20.138Z,97103.00
2023-04-29T18:19:49.482Z,97115.00
2023-04-29T18:22:16.705Z,97108.00
2023-04-29T18:24:43.657Z,97106.00
2023-04-29T18:27:10.667Z,97116.00
2023-04-29T18:29:37.488Z,97120.00
2023-04-29T18:32:07.245Z,97121.00
2023-04-29T18:34:35.057Z,97118.00
2023-04-29T18:37:02.036Z,97124.00
2023-04-29T18:39:28.933Z,97132.00
2023-04-29T18:41:56.107Z,97135.00
2023-04-29T18:44:22.966Z,97137.00
2023-04-29T18:46:50.156Z,97133.00
2023-04-29T18:49:18.070Z,97135.00
2023-04-29T18:51:46.786Z,97146.00
2023-04-29T18:54:19.052Z,97143.00
2023-04-29T18:56:48.520Z,97151.00
2023-04-29T18:59:19.150Z,97158.00
2023-04-29T19:01:47.861Z,97162.00
2023-04-29T19:04:15.755Z,97167.00
2023-04-29T19:06:43.222Z,97168.00
2023-04-29T19:09:14.394Z,97165.00
2023-04-29T19:11:41.381Z,97173.00
2023-04-29T19:14:08.593Z,97178.00
2023-04-29T19:16:37.270Z,97172.00
2023-04-29T19:19:04.657Z,97184.00
2023-04-29T19:21:33.265Z,97196.00
2023-04-29T19:24:00.365Z,97189.00
2023-04-29T19:26:27.290Z,97190.00
2023-04-29T19:28:54.089Z,97190.00
2023-04-29T19:31:21.470Z,97200.00
2023-04-29T19:33:48.694Z,97198.00
2023-04-29T19:36:15.610Z,97209.00
2023-04-29T19:38:42.451Z,97210.00
2023-04-29T19:41:09.555Z,97213.00
2023-04-29T19:43:36.372Z,97214.00
2023-04-29T19:46:03.385Z,97213.00
2023-04-29T19:48:30.835Z,97227.00
2023-04-29T19:50:59.569Z,97216.00
2023-04-29T19:53:29.986Z,97222.00
2023-04-29T19:55:57.034Z,97220.00
2023-04-29T19:58:23.880Z,97217.00
2023-04-29T20:00:50.975Z,97227.00
2023-04-29T20:03:17.972Z,97233.00
2023-04-29T20:05:44.798Z,97230.00
2023-04-29T20:08:11.637Z,97231.00
2023-04-29T20:10:38.518Z,97229.00
2023-04-29T20:13:05.563Z,97235.00
2023-04-29T20:15:32.517Z,97231.00
2023-04-29T20:17:59.668Z,97230.00
2023-04-29T20:20:27.170Z,97238.00
2023-04-29T20:22:58.028Z,97238.00
2023-04-29T20:25:25.919Z,97237.00
2023-04-29T20:27:53.779Z,97241.00
2023-04-29T20:30:21.647Z,97243.00
2023-04-29T20:32:48.755Z,97244.00
2023-04-29T20:35:16.511Z,97233.00
2023-04-29T20:37:43.436Z,97245.00
2023-04-29T20:40:11.660Z,97248.00
2023-04-29T20:42:38.651Z,97238.00
2023-04-29T20:45:07.192Z,97241.00
2023-04-29T20:47:35.416Z,97241.00
2023-04-29T20:50:04.537Z,97247.00
2023-04-29T20:52:31.707Z,97245.00
2023-04-29T20:54:58.792Z,97253.00
2023-04-29T20:57:25.814Z,97248.00
2023-04-29T20:59:52.837Z,97248.00
2023-04-29T21:02:20.458Z,97257.00
2023-04-29T21:04:47.530Z,97256.00
2023-04-29T21:07:14.493Z,97248.00
2023-04-29T21:09:41.296Z,97255.00
2023-04-29T21:12:08.221Z,97247.00
2023-04-29T21:14:35.741Z,97243.00
2023-04-29T21:17:02.582Z,97255.00
2023-04-29T21:19:29.803Z,97256.00
2023-04-29T21:21:56.774Z,97252.00
2023-04-29T21:24:24.128Z,97244.00
2023-04-29T21:26:51.046Z,97255.00
2023-04-29T21:29:17.851Z,97247.00
2023-04-29T21:31:44.690Z,97258.00
2023-04-29T21:34:11.634Z,97263.00
2023-04-29T21:36:38.457Z,97254.00
2023-04-29T21:39:06.365Z,97264.00
2023-04-29T21:41:40.234Z,97261.00
2023-04-29T21:44:07.629Z,97266.00
2023-04-29T21:46:35.756Z,97261.00
2023-04-29T21:49:03.893Z,97262.00
2023-04-29T21:51:31.935Z,97264.00
2023-04-29T21:53:58.786Z,97267.00
2023-04-29T21:56:25.888Z,97268.00
2023-04-29T21:58:53.168Z,97259.00
2023-04-29T22:01:38.715Z,97269.00
2023-04-29T22:04:06.043Z,97258.00
2023-04-29T22:06:34.374Z,97271.00
2023-04-29T22:09:01.756Z,97266.00
2023-04-29T22:11:29.158Z,97280.00
2023-04-29T22:13:56.334Z,97279.00
2023-04-29T22:16:26.110Z,97278.00
2023-04-29T22:18:53.177Z,97277.00
2023-04-29T22:21:20.405Z,97276.00
2023-04-29T22:23:47.381Z,97280.00
2023-04-29T22:26:14.304Z,97272.00
2023-04-29T22:28:41.189Z,97291.00
2023-04-29T22:31:08.037Z,97283.00
2023-04-29T22:33:35.401Z,97291.00
2023-04-29T22:36:03.737Z,97285.00
2023-04-29T22:38:30.796Z,97284.00
2023-04-29T22:40:57.722Z,97282.00
2023-04-29T22:43:24.625Z,97285.00
2023-04-29T22:45:56.385Z,97285.00
2023-04-29T22:48:26.665Z,97288.00
2023-04-29T22:50:59.402Z,97290.00
2023-04-29T22:53:26.801Z,97298.00
2023-04-29T22:55:58.336Z,97299.00
2023-04-29T22:58:26.249Z,97299.00
2023-04-29T23:00:57.770Z,97294.00
2023-04-29T23:03:25.937Z,97290.00
2023-04-29T23:05:59.606Z,97293.00
2023-04-29T23:08:27.521Z,97295.00
2023-04-29T23:10:54.594Z,97294.00
2023-04-29T23:13:21.711Z,97306.00
2023-04-29T23:15:48.797Z,97296.00
2023-04-29T23:18:16.426Z,97296.00
2023-04-29T23:20:47.765Z,97294.00
2023-04-29T23:23:14.756Z,97297.00
2023-04-29T23:25:42.596Z,97293.00
2023-04-29T23:28:09.813Z,97291.00
2023-04-29T23:30:37.472Z,97290.00
2023-04-29T23:33:04.479Z,97287.00
2023-04-29T23:35:31.696Z,97291.00
2023-04-29T23:37:58.594Z,97291.00
2023-04-29T23:40:25.502Z,97294.00
2023-04-29T23:42:52.595Z,97288.00
2023-04-29T23:45:19.532Z,97291.00
2023-04-29T23:47:46.449Z,97292.00
2023-04-29T23:50:13.398Z,97293.00
2023-04-29T23:52:40.339Z,97287.00
2023-04-29T23:55:08.223Z,97286.00
2023-04-29T23:57:34.986Z,97284.00
